Time;durP1;ratioP1;P1;durP2;ratioP2;P2;SDS_P1;SDS_P2;PMS_P1;PMS_P2;Temp;Humidity;BMP_temperature;BMP_pressure;BME280_temperature;BME280_humidity;BME280_pressure;Samples;Min_cycle;Max_cycle;Signal;HPM_P1;HPM_P2
2022/08/20 00:00:47;;;;;;;9.18;4.80;;;;;;;;;;5014062;28;20153;-79
2022/08/20 00:03:19;;;;;;;6.57;4.07;;;;;;;;;;5015065;28;20093;-79
2022/08/20 00:05:51;;;;;;;5.95;3.35;;;;;;;;;;5012635;28;20022;-78
2022/08/20 00:08:17;;;;;;;12.02;3.13;;;;;;;;;;5013966;28;20065;-78
2022/08/20 00:10:43;;;;;;;7.53;3.92;;;;;;;;;;5013202;28;20061;-78
2022/08/20 00:13:12;;;;;;;9.52;4.43;;;;;;;;;;5013507;28;20491;-79
2022/08/20 00:15:38;;;;;;;5.75;2.78;;;;;;;;;;4997371;28;20062;-78
2022/08/20 00:18:06;;;;;;;4.82;3.25;;;;;;;;;;5013516;28;20057;-79
2022/08/20 00:20:35;;;;;;;1.88;1.70;;;;;;;;;;5013288;28;20026;-79
2022/08/20 00:23:01;;;;;;;4.78;2.22;;;;;;;;;;5013705;28;20069;-78
2022/08/20 00:25:27;;;;;;;3.95;3.15;;;;;;;;;;5018019;28;20122;-79
2022/08/20 00:27:54;;;;;;;4.47;2.33;;;;;;;;;;5022238;28;20425;-79
2022/08/20 00:30:25;;;;;;;4.38;2.65;;;;;;;;;;5001260;28;20044;-83
2022/08/20 00:33:00;;;;;;;3.05;2.60;;;;;;;;;;4997907;28;20037;-84
2022/08/20 00:35:33;;;;;;;4.70;3.08;;;;;;;;;;5017144;28;20084;-82
2022/08/20 00:38:00;;;;;;;4.65;2.95;;;;;;;;;;5015787;28;20029;-82
2022/08/20 00:40:37;;;;;;;5.57;2.40;;;;;;;;;;5015703;28;20037;-81
2022/08/20 00:43:06;;;;;;;3.55;2.75;;;;;;;;;;5013338;28;20034;-84
2022/08/20 00:45:35;;;;;;;4.63;2.28;;;;;;;;;;5014088;28;20471;-82
2022/08/20 00:48:01;;;;;;;4.13;3.72;;;;;;;;;;5017689;28;20041;-80
2022/08/20 00:50:32;;;;;;;3.45;2.22;;;;;;;;;;5013262;28;20022;-78
2022/08/20 00:52:59;;;;;;;2.55;2.35;;;;;;;;;;5009854;28;20157;-81
2022/08/20 00:55:25;;;;;;;3.33;2.90;;;;;;;;;;5018180;28;20091;-80
2022/08/20 00:57:53;;;;;;;3.25;2.95;;;;;;;;;;5014545;28;20080;-79
2022/08/20 01:00:41;;;;;;;3.88;3.28;;;;;;;;;;5014511;28;20113;-79
2022/08/20 01:03:09;;;;;;;3.60;2.45;;;;;;;;;;5005858;28;20032;-78
2022/08/20 01:05:40;;;;;;;5.03;2.92;;;;;;;;;;5021474;28;20338;-79
2022/08/20 01:08:08;;;;;;;4.78;2.65;;;;;;;;;;5022740;28;20040;-77
2022/08/20 01:10:39;;;;;;;4.13;2.22;;;;;;;;;;5013982;28;20025;-78
2022/08/20 01:13:10;;;;;;;3.88;2.67;;;;;;;;;;4996752;28;20479;-76
2022/08/20 01:15:41;;;;;;;2.83;2.28;;;;;;;;;;5014396;28;20017;-76
2022/08/20 01:18:11;;;;;;;2.85;2.35;;;;;;;;;;4993059;28;20034;-77
2022/08/20 01:20:38;;;;;;;3.22;2.20;;;;;;;;;;5013393;28;20021;-76
2022/08/20 01:23:28;;;;;;;3.28;2.60;;;;;;;;;;5035033;28;20041;-76
2022/08/20 01:26:01;;;;;;;2.92;2.40;;;;;;;;;;5035292;28;20021;-76
2022/08/20 01:28:36;;;;;;;4.38;2.55;;;;;;;;;;5029077;28;20026;-77
2022/08/20 01:31:04;;;;;;;5.00;3.35;;;;;;;;;;5015498;28;20026;-74
2022/08/20 01:33:30;;;;;;;3.88;2.88;;;;;;;;;;5018357;28;20469;-76
2022/08/20 01:36:01;;;;;;;4.40;2.60;;;;;;;;;;5014490;28;20109;-75
2022/08/20 01:38:31;;;;;;;3.70;2.58;;;;;;;;;;5016256;28;20516;-75
2022/08/20 01:41:15;;;;;;;3.78;2.53;;;;;;;;;;5018691;28;20108;-75
2022/08/20 01:43:45;;;;;;;3.88;2.53;;;;;;;;;;5021892;28;20054;-76
2022/08/20 01:46:14;;;;;;;4.50;3.50;;;;;;;;;;5016125;28;20029;-75
2022/08/20 01:48:41;;;;;;;5.75;3.85;;;;;;;;;;5018518;28;20030;-77
2022/08/20 01:51:14;;;;;;;5.35;3.03;;;;;;;;;;5015833;28;20057;-75
2022/08/20 01:53:43;;;;;;;1.45;1.35;;;;;;;;;;5014704;28;20345;-75
2022/08/20 01:56:13;;;;;;;6.05;2.58;;;;;;;;;;5023567;28;20025;-76
2022/08/20 01:58:44;;;;;;;3.53;3.22;;;;;;;;;;5028133;28;20064;-75
2022/08/20 02:01:31;;;;;;;5.53;2.33;;;;;;;;;;5011374;28;20062;-79
2022/08/20 02:03:57;;;;;;;4.05;2.78;;;;;;;;;;5020517;28;20030;-78
2022/08/20 02:06:24;;;;;;;2.92;2.50;;;;;;;;;;5016353;28;20048;-77
2022/08/20 02:08:52;;;;;;;2.15;1.85;;;;;;;;;;5020116;28;20506;-79
2022/08/20 02:11:18;;;;;;;4.15;2.20;;;;;;;;;;5025773;28;20074;-78
2022/08/20 02:13:48;;;;;;;5.32;3.75;;;;;;;;;;5027711;28;20112;-79
2022/08/20 02:16:13;;;;;;;3.25;1.95;;;;;;;;;;5024115;28;20033;-80
2022/08/20 02:18:39;;;;;;;4.72;2.45;;;;;;;;;;5018852;28;20049;-79
2022/08/20 02:21:04;;;;;;;4.65;2.72;;;;;;;;;;5019449;28;20025;-79
2022/08/20 02:23:30;;;;;;;2.72;2.53;;;;;;;;;;5016588;28;20107;-80
2022/08/20 02:25:58;;;;;;;1.88;1.75;;;;;;;;;;5018813;28;20018;-79
2022/08/20 02:28:28;;;;;;;1.30;1.20;;;;;;;;;;5018066;28;20083;-80
2022/08/20 02:30:54;;;;;;;6.13;2.78;;;;;;;;;;5015598;28;20109;-79
2022/08/20 02:33:21;;;;;;;3.40;1.92;;;;;;;;;;5015094;28;20176;-79
2022/08/20 02:35:51;;;;;;;2.75;2.10;;;;;;;;;;5027563;28;20032;-79
2022/08/20 02:38:19;;;;;;;5.63;2.17;;;;;;;;;;5015068;28;20045;-80
2022/08/20 02:40:45;;;;;;;4.70;3.10;;;;;;;;;;5010687;28;20101;-78
2022/08/20 02:43:11;;;;;;;3.95;2.88;;;;;;;;;;5016467;28;20030;-78
2022/08/20 02:45:42;;;;;;;2.22;1.45;;;;;;;;;;5015344;28;20100;-78
2022/08/20 02:48:08;;;;;;;3.97;2.97;;;;;;;;;;5015614;28;20036;-78
2022/08/20 02:50:34;;;;;;;3.22;1.70;;;;;;;;;;5015493;28;20022;-78
2022/08/20 02:52:59;;;;;;;2.10;1.48;;;;;;;;;;5010947;28;20105;-78
2022/08/20 02:55:27;;;;;;;3.60;2.85;;;;;;;;;;5013233;28;20025;-78
2022/08/20 02:57:57;;;;;;;3.70;2.60;;;;;;;;;;5014793;28;20029;-78
2022/08/20 03:00:25;;;;;;;3.83;2.13;;;;;;;;;;5014704;28;20040;-77
2022/08/20 03:02:50;;;;;;;5.72;3.95;;;;;;;;;;5015636;28;20033;-78
2022/08/20 03:05:16;;;;;;;2.22;2.03;;;;;;;;;;5015700;28;20028;-78
2022/08/20 03:07:47;;;;;;;3.25;2.42;;;;;;;;;;5015004;28;20026;-78
2022/08/20 03:10:15;;;;;;;3.23;2.80;;;;;;;;;;5013385;28;20437;-78
2022/08/20 03:12:44;;;;;;;2.95;2.47;;;;;;;;;;5015973;28;20352;-77
2022/08/20 03:15:10;;;;;;;4.40;2.28;;;;;;;;;;5015310;28;20112;-79
2022/08/20 03:17:38;;;;;;;3.58;2.50;;;;;;;;;;5014390;28;20037;-77
2022/08/20 03:20:06;;;;;;;3.38;2.42;;;;;;;;;;5014731;28;20018;-77
2022/08/20 03:22:32;;;;;;;3.47;2.58;;;;;;;;;;5014164;28;20053;-77
2022/08/20 03:24:57;;;;;;;2.33;2.13;;;;;;;;;;5015061;28;20445;-77
2022/08/20 03:27:23;;;;;;;7.03;1.95;;;;;;;;;;5013215;28;20045;-78
2022/08/20 03:29:49;;;;;;;6.85;2.28;;;;;;;;;;5014211;28;20029;-78
2022/08/20 03:32:14;;;;;;;3.00;2.65;;;;;;;;;;5015138;28;20021;-78
2022/08/20 03:34:39;;;;;;;3.20;1.55;;;;;;;;;;5015522;28;20033;-78
2022/08/20 03:37:05;;;;;;;2.33;1.23;;;;;;;;;;5016366;28;20033;-79
2022/08/20 03:39:30;;;;;;;2.38;1.98;;;;;;;;;;5012779;28;20030;-78
2022/08/20 03:41:56;;;;;;;3.97;1.63;;;;;;;;;;5014195;28;20025;-77
2022/08/20 03:44:21;;;;;;;2.30;1.73;;;;;;;;;;5012391;28;20084;-78
2022/08/20 03:46:47;;;;;;;2.58;1.58;;;;;;;;;;5015735;28;20029;-78
2022/08/20 03:49:13;;;;;;;3.13;1.92;;;;;;;;;;5015827;28;20025;-79
2022/08/20 03:51:40;;;;;;;2.35;2.08;;;;;;;;;;5016207;28;20099;-77
2022/08/20 03:54:08;;;;;;;4.43;2.83;;;;;;;;;;5032259;28;20022;-78
2022/08/20 03:56:36;;;;;;;3.65;1.75;;;;;;;;;;5017549;28;20032;-77
2022/08/20 03:59:01;;;;;;;3.28;2.72;;;;;;;;;;5012135;28;20031;-77
2022/08/20 04:01:29;;;;;;;3.35;2.10;;;;;;;;;;5007866;28;20030;-77
2022/08/20 04:03:57;;;;;;;3.60;2.38;;;;;;;;;;5015921;28;20061;-77
2022/08/20 04:06:23;;;;;;;6.13;1.98;;;;;;;;;;5013435;28;20040;-77
2022/08/20 04:08:52;;;;;;;1.38;1.27;;;;;;;;;;5001509;28;20069;-76
2022/08/20 04:11:17;;;;;;;2.08;1.85;;;;;;;;;;5017114;28;20038;-77
2022/08/20 04:13:43;;;;;;;1.65;1.55;;;;;;;;;;5014872;28;20060;-75
2022/08/20 04:16:08;;;;;;;1.98;1.77;;;;;;;;;;5015522;28;20030;-78
2022/08/20 04:18:35;;;;;;;4.68;1.85;;;;;;;;;;5020779;28;20060;-76
2022/08/20 04:21:02;;;;;;;1.90;1.23;;;;;;;;;;5014057;28;20026;-78
2022/08/20 04:23:28;;;;;;;4.03;2.03;;;;;;;;;;5001133;28;20022;-78
2022/08/20 04:25:54;;;;;;;2.22;1.55;;;;;;;;;;5012675;28;20047;-76
2022/08/20 04:28:26;;;;;;;4.35;1.92;;;;;;;;;;5025504;28;20029;-75
2022/08/20 04:30:57;;;;;;;6.05;3.63;;;;;;;;;;5013488;28;20721;-76
2022/08/20 04:33:25;;;;;;;3.35;1.30;;;;;;;;;;5025121;28;20091;-76
2022/08/20 04:35:50;;;;;;;3.97;1.58;;;;;;;;;;5009038;28;20041;-76
2022/08/20 04:38:17;;;;;;;2.05;1.48;;;;;;;;;;5032081;28;20353;-76
2022/08/20 04:40:57;;;;;;;3.17;2.22;;;;;;;;;;5019363;28;20033;-76
2022/08/20 04:43:33;;;;;;;1.88;1.60;;;;;;;;;;5016638;28;20022;-76
2022/08/20 04:46:01;;;;;;;1.23;1.10;;;;;;;;;;5014018;28;20030;-77
2022/08/20 04:48:28;;;;;;;2.28;1.30;;;;;;;;;;5013831;28;20053;-77
2022/08/20 04:50:54;;;;;;;2.45;1.55;;;;;;;;;;5003153;28;20037;-76
2022/08/20 04:53:22;;;;;;;3.00;2.67;;;;;;;;;;5013697;28;20026;-76
2022/08/20 04:55:49;;;;;;;3.05;1.92;;;;;;;;;;5013046;28;20084;-77
2022/08/20 04:58:19;;;;;;;7.30;3.13;;;;;;;;;;5031273;28;20033;-79
2022/08/20 05:00:49;;;;;;;1.60;1.00;;;;;;;;;;5017955;28;20705;-78
2022/08/20 05:03:16;;;;;;;3.20;1.92;;;;;;;;;;5017747;28;20026;-77
2022/08/20 05:05:43;;;;;;;2.42;1.77;;;;;;;;;;5017530;28;20088;-77
2022/08/20 05:08:09;;;;;;;1.30;1.17;;;;;;;;;;5016508;28;20036;-77
2022/08/20 05:10:36;;;;;;;3.05;1.80;;;;;;;;;;5016994;28;20026;-76
2022/08/20 05:13:05;;;;;;;3.03;2.70;;;;;;;;;;5017647;28;20030;-76
2022/08/20 05:15:30;;;;;;;2.83;2.05;;;;;;;;;;5012529;28;20108;-77
2022/08/20 05:18:01;;;;;;;2.90;2.67;;;;;;;;;;5017842;28;20445;-77
2022/08/20 05:20:31;;;;;;;2.97;2.30;;;;;;;;;;5017476;28;20030;-76
2022/08/20 05:23:03;;;;;;;2.92;1.88;;;;;;;;;;5006790;28;20034;-76
2022/08/20 05:25:31;;;;;;;;;;;;;;;;;;5012188;28;20025;-76
2022/08/20 05:28:08;;;;;;;2.95;1.70;;;;;;;;;;5030960;28;19967;-76
2022/08/20 05:30:46;;;;;;;6.18;3.63;;;;;;;;;;5019995;28;20022;-77
2022/08/20 05:33:13;;;;;;;3.45;1.95;;;;;;;;;;5016340;28;20217;-77
2022/08/20 05:35:41;;;;;;;3.45;1.90;;;;;;;;;;5016741;28;20125;-76
2022/08/20 05:38:11;;;;;;;4.20;2.05;;;;;;;;;;4999198;28;20030;-76
2022/08/20 05:40:41;;;;;;;1.80;1.70;;;;;;;;;;5031589;28;20026;-76
2022/08/20 05:43:10;;;;;;;7.50;3.22;;;;;;;;;;5015494;28;20035;-76
2022/08/20 05:45:37;;;;;;;2.90;1.90;;;;;;;;;;5000841;28;20025;-77
2022/08/20 05:48:17;;;;;;;2.03;1.38;;;;;;;;;;5016001;28;20471;-78
2022/08/20 05:50:47;;;;;;;2.00;1.70;;;;;;;;;;5016310;28;20121;-77
2022/08/20 05:53:16;;;;;;;4.85;3.17;;;;;;;;;;5016684;28;20034;-77
2022/08/20 05:55:44;;;;;;;2.95;2.22;;;;;;;;;;5013529;28;20030;-78
2022/08/20 05:58:19;;;;;;;2.03;1.40;;;;;;;;;;5031103;28;20038;-77
2022/08/20 06:00:45;;;;;;;2.67;1.48;;;;;;;;;;5017442;28;20040;-77
2022/08/20 06:05:55;;;;;;;2.53;2.33;;;;;;;;;;5016728;28;20040;-77
2022/08/20 06:08:20;;;;;;;2.20;1.40;;;;;;;;;;5012669;28;20037;-77
2022/08/20 06:10:48;;;;;;;2.88;1.73;;;;;;;;;;5015846;28;20053;-77
2022/08/20 06:13:15;;;;;;;4.65;2.17;;;;;;;;;;5015720;28;20033;-76
2022/08/20 06:15:41;;;;;;;4.22;2.40;;;;;;;;;;5019912;28;20037;-76
2022/08/20 06:18:08;;;;;;;4.55;2.75;;;;;;;;;;5022801;28;20101;-76
2022/08/20 06:20:34;;;;;;;4.10;1.85;;;;;;;;;;5015647;28;20073;-77
2022/08/20 06:23:00;;;;;;;1.63;1.40;;;;;;;;;;5016132;28;20337;-78
2022/08/20 06:25:26;;;;;;;2.45;1.77;;;;;;;;;;5023318;28;20028;-77
2022/08/20 06:27:56;;;;;;;1.65;1.55;;;;;;;;;;5015624;28;20352;-78
2022/08/20 06:30:21;;;;;;;3.33;2.60;;;;;;;;;;5016241;28;20457;-77
2022/08/20 06:32:50;;;;;;;1.73;1.45;;;;;;;;;;5013648;28;20037;-76
2022/08/20 06:35:15;;;;;;;3.17;2.47;;;;;;;;;;5014444;28;20477;-78
2022/08/20 06:37:41;;;;;;;2.80;2.53;;;;;;;;;;5014797;28;20036;-77
2022/08/20 06:40:09;;;;;;;2.97;1.52;;;;;;;;;;5015010;28;20100;-78
2022/08/20 06:42:42;;;;;;;2.50;2.22;;;;;;;;;;5014565;28;20473;-78
2022/08/20 06:45:09;;;;;;;1.92;1.83;;;;;;;;;;5015152;28;20116;-78
2022/08/20 06:47:39;;;;;;;2.67;2.45;;;;;;;;;;5023392;28;20076;-78
2022/08/20 06:50:08;;;;;;;4.28;2.33;;;;;;;;;;5014907;28;20465;-77
2022/08/20 06:52:33;;;;;;;3.60;2.00;;;;;;;;;;5022750;28;20026;-78
2022/08/20 06:54:58;;;;;;;2.38;2.17;;;;;;;;;;5015177;28;20055;-78
2022/08/20 06:57:26;;;;;;;3.63;2.83;;;;;;;;;;5015394;28;20107;-79
2022/08/20 06:59:53;;;;;;;2.72;2.33;;;;;;;;;;5017273;28;20033;-78
2022/08/20 07:02:19;;;;;;;2.17;1.15;;;;;;;;;;5014767;28;20044;-76
2022/08/20 07:04:49;;;;;;;2.95;2.38;;;;;;;;;;5015590;28;20033;-77
2022/08/20 07:07:18;;;;;;;4.05;2.88;;;;;;;;;;5014774;28;20026;-78
2022/08/20 07:09:46;;;;;;;3.63;3.30;;;;;;;;;;5016050;28;20033;-78
2022/08/20 07:12:16;;;;;;;2.88;2.63;;;;;;;;;;5013633;28;20044;-79
2022/08/20 07:14:42;;;;;;;1.77;1.42;;;;;;;;;;5015752;28;20105;-78
2022/08/20 07:17:07;;;;;;;1.67;1.58;;;;;;;;;;5015241;28;20112;-78
2022/08/20 07:19:32;;;;;;;5.47;3.25;;;;;;;;;;5012596;28;20108;-78
2022/08/20 07:21:58;;;;;;;2.67;2.45;;;;;;;;;;5018080;28;20345;-78
2022/08/20 07:24:26;;;;;;;2.30;2.13;;;;;;;;;;5017046;28;20056;-81
2022/08/20 07:26:51;;;;;;;4.85;2.35;;;;;;;;;;5018543;28;20018;-77
2022/08/20 07:29:19;;;;;;;3.70;1.45;;;;;;;;;;5021395;28;20021;-78
2022/08/20 07:34:30;;;;;;;1.92;1.70;;;;;;;;;;5013735;28;20123;-78
2022/08/20 07:36:59;;;;;;;3.33;2.00;;;;;;;;;;5015251;28;20040;-78
2022/08/20 07:39:25;;;;;;;2.13;1.88;;;;;;;;;;5021375;28;20452;-77
2022/08/20 07:42:01;;;;;;;3.03;2.20;;;;;;;;;;5016546;28;20021;-77
2022/08/20 07:44:28;;;;;;;4.20;2.15;;;;;;;;;;5028363;28;20037;-78
2022/08/20 07:46:53;;;;;;;3.58;2.45;;;;;;;;;;5015903;28;20049;-77
2022/08/20 07:49:21;;;;;;;1.50;1.23;;;;;;;;;;5014810;28;20435;-79
2022/08/20 07:51:46;;;;;;;2.40;2.05;;;;;;;;;;5014493;28;20030;-78
2022/08/20 07:54:12;;;;;;;1.90;1.73;;;;;;;;;;5014373;28;20041;-78
2022/08/20 07:56:37;;;;;;;1.83;1.73;;;;;;;;;;5015004;28;20040;-78
2022/08/20 07:59:02;;;;;;;5.38;2.10;;;;;;;;;;5015384;28;20022;-79
2022/08/20 08:01:30;;;;;;;2.80;2.38;;;;;;;;;;5017380;28;20061;-78
2022/08/20 08:03:56;;;;;;;1.70;1.55;;;;;;;;;;5015385;28;20025;-79
2022/08/20 08:06:22;;;;;;;2.45;1.65;;;;;;;;;;5013222;28;20088;-77
2022/08/20 08:08:48;;;;;;;2.88;2.35;;;;;;;;;;5015363;28;20025;-79
2022/08/20 08:11:13;;;;;;;2.00;1.77;;;;;;;;;;5012952;28;20034;-79
2022/08/20 08:13:43;;;;;;;3.88;2.00;;;;;;;;;;5010506;28;20029;-79
2022/08/20 08:16:09;;;;;;;1.67;1.58;;;;;;;;;;5015438;28;20026;-79
2022/08/20 08:18:44;;;;;;;4.53;1.77;;;;;;;;;;5014098;28;20369;-77
2022/08/20 08:21:11;;;;;;;3.20;2.55;;;;;;;;;;5009195;28;20270;-79
2022/08/20 08:23:39;;;;;;;2.92;2.28;;;;;;;;;;5015106;28;20413;-78
2022/08/20 08:26:05;;;;;;;4.30;3.17;;;;;;;;;;5013994;28;20112;-78
2022/08/20 08:28:30;;;;;;;4.95;2.45;;;;;;;;;;5014583;28;20029;-80
2022/08/20 08:30:56;;;;;;;2.88;2.30;;;;;;;;;;5025048;28;20161;-77
2022/08/20 08:33:26;;;;;;;0.95;0.77;;;;;;;;;;5011447;28;20037;-79
2022/08/20 08:35:57;;;;;;;1.67;1.58;;;;;;;;;;5008460;28;20046;-79
2022/08/20 08:38:28;;;;;;;2.95;1.60;;;;;;;;;;5016293;28;20036;-78
2022/08/20 08:40:57;;;;;;;4.63;2.65;;;;;;;;;;5020337;28;20025;-78
2022/08/20 08:43:26;;;;;;;1.90;1.60;;;;;;;;;;5003835;28;20030;-78
2022/08/20 08:46:00;;;;;;;2.47;2.28;;;;;;;;;;5014224;28;20057;-78
2022/08/20 08:48:31;;;;;;;2.53;1.13;;;;;;;;;;5017997;28;20041;-79
2022/08/20 08:50:58;;;;;;;2.78;2.28;;;;;;;;;;5006766;28;20105;-79
2022/08/20 08:53:32;;;;;;;4.15;2.88;;;;;;;;;;5012961;28;20033;-79
2022/08/20 08:55:59;;;;;;;3.05;2.75;;;;;;;;;;5011972;28;20026;-78
2022/08/20 08:58:25;;;;;;;2.88;2.58;;;;;;;;;;5016069;28;20034;-78
2022/08/20 09:00:50;;;;;;;3.05;2.72;;;;;;;;;;5020209;28;20083;-79
2022/08/20 09:03:28;;;;;;;4.50;2.55;;;;;;;;;;5007536;28;20064;-79
2022/08/20 09:05:59;;;;;;;2.92;2.20;;;;;;;;;;5020421;28;20029;-81
2022/08/20 09:08:46;;;;;;;6.05;3.22;;;;;;;;;;5018588;28;20049;-80
2022/08/20 09:11:12;;;;;;;5.47;2.97;;;;;;;;;;5008920;28;20054;-81
2022/08/20 09:13:37;;;;;;;4.10;2.20;;;;;;;;;;5000220;28;20378;-81
2022/08/20 09:16:03;;;;;;;2.70;2.45;;;;;;;;;;5010170;28;20432;-82
2022/08/20 09:18:28;;;;;;;2.63;2.13;;;;;;;;;;5010426;28;20448;-80
2022/08/20 09:20:56;;;;;;;5.40;3.65;;;;;;;;;;5019730;28;20033;-79
2022/08/20 09:23:24;;;;;;;4.45;2.63;;;;;;;;;;5014202;28;20096;-82
2022/08/20 09:25:50;;;;;;;5.50;3.95;;;;;;;;;;5018516;28;20485;-78
2022/08/20 09:28:15;;;;;;;6.63;4.28;;;;;;;;;;5011764;28;20112;-79
2022/08/20 09:30:43;;;;;;;4.97;3.65;;;;;;;;;;4998761;28;20034;-77
2022/08/20 09:33:08;;;;;;;5.35;3.92;;;;;;;;;;5014307;28;20041;-79
2022/08/20 09:35:33;;;;;;;4.82;3.47;;;;;;;;;;5034361;28;20025;-79
2022/08/20 09:38:02;;;;;;;7.28;5.22;;;;;;;;;;5034022;28;20059;-79
2022/08/20 09:40:27;;;;;;;5.00;4.50;;;;;;;;;;5005431;28;20029;-79
2022/08/20 09:42:53;;;;;;;5.45;3.85;;;;;;;;;;5015846;28;20075;-80
2022/08/20 09:45:19;;;;;;;7.13;4.43;;;;;;;;;;5018466;28;20171;-79
2022/08/20 09:47:47;;;;;;;4.88;4.07;;;;;;;;;;5012412;28;20120;-82
2022/08/20 09:50:12;;;;;;;4.72;3.40;;;;;;;;;;5017929;28;20017;-78
2022/08/20 09:52:43;;;;;;;5.72;4.28;;;;;;;;;;5016827;28;20501;-79
2022/08/20 09:55:18;;;;;;;5.78;3.50;;;;;;;;;;5017812;28;20049;-78
2022/08/20 09:57:45;;;;;;;12.05;5.88;;;;;;;;;;5017170;28;20038;-81
2022/08/20 10:00:15;;;;;;;6.13;4.85;;;;;;;;;;5000295;28;20061;-79
2022/08/20 10:02:51;;;;;;;3.88;3.55;;;;;;;;;;5016848;28;20037;-77
2022/08/20 10:05:16;;;;;;;8.68;4.53;;;;;;;;;;5001353;28;20026;-78
2022/08/20 10:07:42;;;;;;;8.95;5.70;;;;;;;;;;5016893;28;20026;-79
2022/08/20 10:10:10;;;;;;;5.28;4.03;;;;;;;;;;4999398;28;20044;-77
2022/08/20 10:12:35;;;;;;;5.00;3.70;;;;;;;;;;5016992;28;20126;-81
2022/08/20 10:15:00;;;;;;;5.75;4.00;;;;;;;;;;5011246;28;20101;-79
2022/08/20 10:17:26;;;;;;;5.25;4.28;;;;;;;;;;5015342;28;20026;-77
2022/08/20 10:19:51;;;;;;;5.35;3.97;;;;;;;;;;5016939;28;20048;-80
2022/08/20 10:22:17;;;;;;;7.85;3.28;;;;;;;;;;5016169;28;20104;-82
2022/08/20 10:24:42;;;;;;;5.78;4.05;;;;;;;;;;5017154;28;20026;-77
2022/08/20 10:27:07;;;;;;;5.20;3.45;;;;;;;;;;5021542;28;20045;-82
2022/08/20 10:29:33;;;;;;;4.80;3.70;;;;;;;;;;5015594;28;20030;-78
2022/08/20 10:32:13;;;;;;;6.30;3.95;;;;;;;;;;5016923;28;20079;-80
2022/08/20 10:34:46;;;;;;;5.25;3.35;;;;;;;;;;5017667;28;20315;-83
2022/08/20 10:37:18;;;;;;;6.78;3.90;;;;;;;;;;5013238;28;20453;-79
2022/08/20 10:40:05;;;;;;;4.25;3.67;;;;;;;;;;5016851;28;20030;-82
2022/08/20 10:42:33;;;;;;;7.22;3.20;;;;;;;;;;5012573;28;20033;-82
2022/08/20 10:45:15;;;;;;;6.30;4.70;;;;;;;;;;5015851;28;20670;-80
2022/08/20 10:47:40;;;;;;;5.50;4.35;;;;;;;;;;5012856;28;20066;-82
2022/08/20 10:50:12;;;;;;;5.18;4.63;;;;;;;;;;5013940;28;20069;-81
2022/08/20 10:52:40;;;;;;;6.27;4.33;;;;;;;;;;5012128;28;20152;-80
2022/08/20 10:55:06;;;;;;;4.35;3.72;;;;;;;;;;4985012;28;20034;-79
2022/08/20 10:57:32;;;;;;;6.55;3.38;;;;;;;;;;5012129;28;20032;-80
2022/08/20 10:59:59;;;;;;;3.92;3.40;;;;;;;;;;5010828;28;20100;-79
2022/08/20 11:02:25;;;;;;;5.85;3.85;;;;;;;;;;5006502;28;20026;-80
2022/08/20 11:04:51;;;;;;;6.68;3.42;;;;;;;;;;5011181;28;20037;-76
2022/08/20 11:07:20;;;;;;;3.65;2.97;;;;;;;;;;5000128;28;20092;-76
2022/08/20 11:09:47;;;;;;;3.92;2.28;;;;;;;;;;5019299;28;20360;-78
2022/08/20 11:12:16;;;;;;;3.22;2.28;;;;;;;;;;5008448;28;20076;-80
2022/08/20 11:14:41;;;;;;;4.30;2.13;;;;;;;;;;5012810;28;20357;-79
2022/08/20 11:17:07;;;;;;;6.22;3.47;;;;;;;;;;5015752;28;20148;-80
2022/08/20 11:19:33;;;;;;;9.70;3.38;;;;;;;;;;5015303;28;20338;-80
2022/08/20 11:22:00;;;;;;;8.90;3.13;;;;;;;;;;5014389;28;20049;-80
2022/08/20 11:24:32;;;;;;;4.28;3.15;;;;;;;;;;5029625;28;20041;-77
2022/08/20 11:26:57;;;;;;;3.95;2.28;;;;;;;;;;5014276;28;20042;-79
2022/08/20 11:29:24;;;;;;;3.30;2.47;;;;;;;;;;5015471;28;20108;-81
2022/08/20 11:31:52;;;;;;;2.80;1.77;;;;;;;;;;5014404;28;20455;-81
2022/08/20 11:34:17;;;;;;;2.58;2.15;;;;;;;;;;5016145;28;20411;-76
2022/08/20 11:36:43;;;;;;;4.68;3.15;;;;;;;;;;5015166;28;20121;-78
2022/08/20 11:39:09;;;;;;;4.43;3.20;;;;;;;;;;5013360;28;20338;-77
2022/08/20 11:41:34;;;;;;;1.67;1.58;;;;;;;;;;5009016;28;20089;-78
2022/08/20 11:44:02;;;;;;;3.65;2.50;;;;;;;;;;5013614;28;20045;-76
2022/08/20 11:46:28;;;;;;;6.75;2.20;;;;;;;;;;5010271;28;20018;-75
2022/08/20 11:48:53;;;;;;;1.55;1.30;;;;;;;;;;5002692;28;20022;-78
2022/08/20 11:51:20;;;;;;;2.83;2.03;;;;;;;;;;5013222;28;20064;-75
2022/08/20 11:53:46;;;;;;;2.70;2.40;;;;;;;;;;5014292;28;20044;-79
2022/08/20 11:56:13;;;;;;;2.45;2.25;;;;;;;;;;5013554;28;20037;-79
2022/08/20 11:58:38;;;;;;;2.78;2.30;;;;;;;;;;5010509;28;20044;-80
2022/08/20 12:01:03;;;;;;;3.30;2.25;;;;;;;;;;5010392;28;20129;-79
2022/08/20 12:03:31;;;;;;;4.50;2.70;;;;;;;;;;5006050;28;20033;-77
2022/08/20 12:05:56;;;;;;;5.90;2.58;;;;;;;;;;5010024;28;20049;-76
2022/08/20 12:08:22;;;;;;;2.70;2.22;;;;;;;;;;5012017;28;20083;-78
2022/08/20 12:10:48;;;;;;;2.17;2.03;;;;;;;;;;5012875;28;20041;-80
2022/08/20 12:13:13;;;;;;;1.73;1.25;;;;;;;;;;5010599;28;20452;-78
2022/08/20 12:15:38;;;;;;;1.55;1.25;;;;;;;;;;5004451;28;20128;-80
2022/08/20 12:18:07;;;;;;;2.00;1.60;;;;;;;;;;5014051;28;20052;-79
2022/08/20 12:20:33;;;;;;;1.42;1.33;;;;;;;;;;5002381;28;20030;-80
2022/08/20 12:23:03;;;;;;;2.17;1.80;;;;;;;;;;5002058;28;20037;-80
2022/08/20 12:25:32;;;;;;;2.90;1.60;;;;;;;;;;5007317;28;20480;-78
2022/08/20 12:28:03;;;;;;;2.30;1.70;;;;;;;;;;5012636;28;20091;-75
2022/08/20 12:30:32;;;;;;;2.42;2.22;;;;;;;;;;5027037;28;20057;-79
2022/08/20 12:32:58;;;;;;;2.50;2.10;;;;;;;;;;5013853;28;20030;-78
2022/08/20 12:35:23;;;;;;;3.05;2.60;;;;;;;;;;5014476;28;20084;-75
2022/08/20 12:37:49;;;;;;;4.13;2.15;;;;;;;;;;5008096;28;20061;-76
2022/08/20 12:40:20;;;;;;;2.90;2.40;;;;;;;;;;5014360;28;20026;-77
2022/08/20 12:42:45;;;;;;;3.53;2.10;;;;;;;;;;5012897;28;20029;-76
2022/08/20 12:45:13;;;;;;;2.92;1.98;;;;;;;;;;5013747;28;20030;-79
2022/08/20 12:47:42;;;;;;;3.70;2.63;;;;;;;;;;5013501;28;20030;-77
2022/08/20 12:50:14;;;;;;;10.73;2.38;;;;;;;;;;4996200;28;20064;-78
2022/08/20 12:52:40;;;;;;;2.95;2.47;;;;;;;;;;5007706;28;20030;-77
2022/08/20 12:55:07;;;;;;;3.17;2.45;;;;;;;;;;5008729;28;20048;-76
2022/08/20 12:57:52;;;;;;;2.88;2.17;;;;;;;;;;5025678;28;20026;-76
2022/08/20 13:00:25;;;;;;;4.90;2.20;;;;;;;;;;4995117;28;20026;-74
2022/08/20 13:02:53;;;;;;;2.25;2.05;;;;;;;;;;5011979;28;20042;-77
2022/08/20 13:05:19;;;;;;;2.13;1.80;;;;;;;;;;5011864;28;20141;-76
2022/08/20 13:07:45;;;;;;;2.03;1.83;;;;;;;;;;5012893;28;20087;-75
2022/08/20 13:10:15;;;;;;;2.95;2.38;;;;;;;;;;5011688;28;20065;-74
2022/08/20 13:12:40;;;;;;;1.95;1.85;;;;;;;;;;5007416;28;20520;-76
2022/08/20 13:15:08;;;;;;;4.65;2.58;;;;;;;;;;5011696;28;20034;-76
2022/08/20 13:17:38;;;;;;;2.70;2.17;;;;;;;;;;5013387;28;20108;-76
2022/08/20 13:20:10;;;;;;;2.72;1.60;;;;;;;;;;5017128;28;20018;-76
2022/08/20 13:22:36;;;;;;;;;;;;;;;;;;5016887;28;20057;-78
2022/08/20 13:25:01;;;;;;;2.33;1.98;;;;;;;;;;5000194;28;19959;-78
2022/08/20 13:27:27;;;;;;;3.03;2.10;;;;;;;;;;5029782;28;20037;-80
2022/08/20 13:29:53;;;;;;;2.40;1.98;;;;;;;;;;5016495;28;20030;-77
2022/08/20 13:32:20;;;;;;;1.15;1.02;;;;;;;;;;5017506;28;20416;-83
2022/08/20 13:34:47;;;;;;;1.33;1.08;;;;;;;;;;5016423;28;20436;-79
2022/08/20 13:37:18;;;;;;;1.75;0.85;;;;;;;;;;5017952;28;20048;-76
2022/08/20 13:39:46;;;;;;;1.23;1.13;;;;;;;;;;5015677;28;20026;-77
2022/08/20 13:42:12;;;;;;;1.48;1.15;;;;;;;;;;5016694;28;20549;-77
2022/08/20 13:44:38;;;;;;;6.53;1.42;;;;;;;;;;5016883;28;20022;-83
2022/08/20 13:47:17;;;;;;;1.30;0.88;;;;;;;;;;5017567;28;20440;-76
2022/08/20 13:49:46;;;;;;;1.73;1.60;;;;;;;;;;5016656;28;21602;-76
2022/08/20 13:52:13;;;;;;;1.55;1.42;;;;;;;;;;5017943;28;20045;-77
2022/08/20 13:54:41;;;;;;;1.08;0.80;;;;;;;;;;5015923;28;20139;-75
2022/08/20 13:57:23;;;;;;;3.45;1.85;;;;;;;;;;5015036;28;20038;-78
2022/08/20 13:59:51;;;;;;;8.50;1.05;;;;;;;;;;5013995;28;20022;-79
2022/08/20 14:02:20;;;;;;;2.05;1.50;;;;;;;;;;5015389;28;20032;-78
2022/08/20 14:04:47;;;;;;;1.35;1.25;;;;;;;;;;5012751;28;20037;-77
2022/08/20 14:07:18;;;;;;;3.08;1.33;;;;;;;;;;5011069;28;20029;-79
2022/08/20 14:09:49;;;;;;;5.90;2.88;;;;;;;;;;5014560;28;20030;-77
2022/08/20 14:12:15;;;;;;;0.57;0.57;;;;;;;;;;5016519;28;20100;-77
2022/08/20 14:14:41;;;;;;;1.13;1.08;;;;;;;;;;5016629;28;20044;-78
2022/08/20 14:17:26;;;;;;;5.72;1.33;;;;;;;;;;5015619;28;20022;-76
2022/08/20 14:19:55;;;;;;;1.27;0.93;;;;;;;;;;5009137;28;20369;-76
2022/08/20 14:22:21;;;;;;;1.55;1.00;;;;;;;;;;4996955;28;20038;-77
2022/08/20 14:24:48;;;;;;;2.47;0.75;;;;;;;;;;5026419;28;20030;-80
2022/08/20 14:27:18;;;;;;;0.82;0.80;;;;;;;;;;5016251;28;20045;-79
2022/08/20 14:29:44;;;;;;;1.27;0.70;;;;;;;;;;5014299;28;20061;-78
2022/08/20 14:32:22;;;;;;;0.35;0.35;;;;;;;;;;5014846;28;20041;-77
2022/08/20 14:34:48;;;;;;;0.30;0.30;;;;;;;;;;5009722;28;20594;-83
2022/08/20 14:37:22;;;;;;;0.55;0.43;;;;;;;;;;5014958;28;20504;-80
2022/08/20 14:39:58;;;;;;;1.25;1.00;;;;;;;;;;5014059;28;20033;-83
2022/08/20 14:42:28;;;;;;;0.63;0.60;;;;;;;;;;5014573;28;20049;-83
2022/08/20 14:45:10;;;;;;;3.17;1.30;;;;;;;;;;5007323;28;20430;-85
2022/08/20 14:47:39;;;;;;;0.47;0.47;;;;;;;;;;5012300;28;20025;-82
2022/08/20 14:50:08;;;;;;;1.77;1.23;;;;;;;;;;5013432;28;20025;-81
2022/08/20 14:52:35;;;;;;;0.40;0.40;;;;;;;;;;5016488;28;20121;-80
2022/08/20 14:55:07;;;;;;;1.13;1.08;;;;;;;;;;5012494;28;20080;-84